sensor_id;sensor_type;location;lat;lon;timestamp;P1;durP1;ratioP1;P2;durP2;ratioP2
16506;SDS011;8366;51.020;7.642;2023-04-06T00:00:22;14.60;;;8.57;;
16506;SDS011;8366;51.020;7.642;2023-04-06T00:02:51;15.60;;;8.33;;
16506;SDS011;8366;51.020;7.642;2023-04-06T00:05:17;14.23;;;8.47;;
16506;SDS011;8366;51.020;7.642;2023-04-06T00:07:46;13.17;;;9.03;;
16506;SDS011;8366;51.020;7.642;2023-04-06T00:10:12;12.27;;;8.40;;
16506;SDS011;8366;51.020;7.642;2023-04-06T00:12:39;14.67;;;9.67;;
16506;SDS011;8366;51.020;7.642;2023-04-06T00:15:06;15.80;;;10.17;;
16506;SDS011;8366;51.020;7.642;2023-04-06T00:17:33;14.17;;;9.10;;
16506;SDS011;8366;51.020;7.642;2023-04-06T00:19:59;15.17;;;9.17;;
16506;SDS011;8366;51.020;7.642;2023-04-06T00:22:26;12.53;;;8.30;;
16506;SDS011;8366;51.020;7.642;2023-04-06T00:24:53;15.43;;;9.27;;
16506;SDS011;8366;51.020;7.642;2023-04-06T00:27:20;13.20;;;8.37;;
16506;SDS011;8366;51.020;7.642;2023-04-06T00:29:47;13.00;;;8.83;;
16506;SDS011;8366;51.020;7.642;2023-04-06T00:32:17;13.43;;;8.57;;
16506;SDS011;8366;51.020;7.642;2023-04-06T00:34:43;14.47;;;8.03;;
16506;SDS011;8366;51.020;7.642;2023-04-06T00:37:10;12.73;;;8.10;;
16506;SDS011;8366;51.020;7.642;2023-04-06T00:39:37;12.37;;;8.17;;
16506;SDS011;8366;51.020;7.642;2023-04-06T00:42:07;10.33;;;7.93;;
16506;SDS011;8366;51.020;7.642;2023-04-06T00:44:35;11.80;;;7.73;;
16506;SDS011;8366;51.020;7.642;2023-04-06T00:47:01;9.97;;;7.10;;
16506;SDS011;8366;51.020;7.642;2023-04-06T00:49:28;11.47;;;7.87;;
16506;SDS011;8366;51.020;7.642;2023-04-06T00:51:54;11.60;;;7.93;;
16506;SDS011;8366;51.020;7.642;2023-04-06T00:54:21;12.77;;;7.40;;
16506;SDS011;8366;51.020;7.642;2023-04-06T00:56:47;16.70;;;8.37;;
16506;SDS011;8366;51.020;7.642;2023-04-06T00:59:15;14.57;;;8.40;;
16506;SDS011;8366;51.020;7.642;2023-04-06T01:01:41;13.20;;;8.17;;
16506;SDS011;8366;51.020;7.642;2023-04-06T01:04:08;16.27;;;8.17;;
16506;SDS011;8366;51.020;7.642;2023-04-06T01:06:35;13.03;;;7.23;;
16506;SDS011;8366;51.020;7.642;2023-04-06T01:09:01;12.10;;;7.63;;
16506;SDS011;8366;51.020;7.642;2023-04-06T01:11:28;11.53;;;7.27;;
16506;SDS011;8366;51.020;7.642;2023-04-06T01:13:55;13.00;;;8.60;;
16506;SDS011;8366;51.020;7.642;2023-04-06T01:16:22;13.40;;;7.97;;
16506;SDS011;8366;51.020;7.642;2023-04-06T01:18:50;12.67;;;8.00;;
16506;SDS011;8366;51.020;7.642;2023-04-06T01:21:16;13.73;;;8.13;;
16506;SDS011;8366;51.020;7.642;2023-04-06T01:23:44;16.03;;;8.57;;
16506;SDS011;8366;51.020;7.642;2023-04-06T01:26:11;14.77;;;8.63;;
16506;SDS011;8366;51.020;7.642;2023-04-06T01:28:38;12.33;;;7.93;;
16506;SDS011;8366;51.020;7.642;2023-04-06T01:31:05;15.83;;;8.57;;
16506;SDS011;8366;51.020;7.642;2023-04-06T01:33:32;17.37;;;8.80;;
16506;SDS011;8366;51.020;7.642;2023-04-06T01:35:58;19.07;;;9.47;;
16506;SDS011;8366;51.020;7.642;2023-04-06T01:38:25;16.30;;;9.30;;
16506;SDS011;8366;51.020;7.642;2023-04-06T01:40:53;16.57;;;9.10;;
16506;SDS011;8366;51.020;7.642;2023-04-06T01:43:20;17.97;;;9.97;;
16506;SDS011;8366;51.020;7.642;2023-04-06T01:45:47;18.60;;;10.20;;
16506;SDS011;8366;51.020;7.642;2023-04-06T01:48:13;18.80;;;10.00;;
16506;SDS011;8366;51.020;7.642;2023-04-06T01:50:40;17.17;;;9.77;;
16506;SDS011;8366;51.020;7.642;2023-04-06T01:53:06;20.13;;;11.03;;
16506;SDS011;8366;51.020;7.642;2023-04-06T01:55:33;20.03;;;10.83;;
16506;SDS011;8366;51.020;7.642;2023-04-06T01:58:01;17.77;;;10.17;;
16506;SDS011;8366;51.020;7.642;2023-04-06T02:00:28;18.67;;;10.33;;
16506;SDS011;8366;51.020;7.642;2023-04-06T02:02:54;14.27;;;9.00;;
16506;SDS011;8366;51.020;7.642;2023-04-06T02:05:22;19.60;;;9.70;;
16506;SDS011;8366;51.020;7.642;2023-04-06T02:07:50;15.47;;;9.53;;
16506;SDS011;8366;51.020;7.642;2023-04-06T02:10:17;16.00;;;9.43;;
16506;SDS011;8366;51.020;7.642;2023-04-06T02:12:44;17.07;;;10.37;;
16506;SDS011;8366;51.020;7.642;2023-04-06T02:15:12;16.60;;;9.67;;
16506;SDS011;8366;51.020;7.642;2023-04-06T02:17:39;17.47;;;10.17;;
16506;SDS011;8366;51.020;7.642;2023-04-06T02:20:05;16.97;;;9.57;;
16506;SDS011;8366;51.020;7.642;2023-04-06T02:22:32;17.60;;;9.57;;
16506;SDS011;8366;51.020;7.642;2023-04-06T02:24:59;12.97;;;8.43;;
16506;SDS011;8366;51.020;7.642;2023-04-06T02:27:26;16.83;;;9.23;;
16506;SDS011;8366;51.020;7.642;2023-04-06T02:29:52;14.13;;;8.73;;
16506;SDS011;8366;51.020;7.642;2023-04-06T02:32:21;12.73;;;8.23;;
16506;SDS011;8366;51.020;7.642;2023-04-06T02:34:48;13.03;;;8.43;;
16506;SDS011;8366;51.020;7.642;2023-04-06T02:37:14;13.07;;;8.77;;
16506;SDS011;8366;51.020;7.642;2023-04-06T02:39:41;13.17;;;8.33;;
16506;SDS011;8366;51.020;7.642;2023-04-06T02:42:08;12.13;;;8.00;;
16506;SDS011;8366;51.020;7.642;2023-04-06T02:44:35;12.10;;;7.93;;
16506;SDS011;8366;51.020;7.642;2023-04-06T02:47:01;11.80;;;7.33;;
16506;SDS011;8366;51.020;7.642;2023-04-06T02:49:29;12.07;;;7.90;;
16506;SDS011;8366;51.020;7.642;2023-04-06T02:51:56;12.97;;;7.97;;
16506;SDS011;8366;51.020;7.642;2023-04-06T02:54:22;13.73;;;7.60;;
16506;SDS011;8366;51.020;7.642;2023-04-06T02:56:49;12.00;;;7.30;;
16506;SDS011;8366;51.020;7.642;2023-04-06T02:59:15;8.97;;;6.80;;
16506;SDS011;8366;51.020;7.642;2023-04-06T03:01:41;10.13;;;6.77;;
16506;SDS011;8366;51.020;7.642;2023-04-06T03:04:08;10.93;;;7.50;;
16506;SDS011;8366;51.020;7.642;2023-04-06T03:06:37;9.53;;;6.73;;
16506;SDS011;8366;51.020;7.642;2023-04-06T03:09:03;10.30;;;6.83;;
16506;SDS011;8366;51.020;7.642;2023-04-06T03:11:30;11.43;;;7.37;;
16506;SDS011;8366;51.020;7.642;2023-04-06T03:13:57;10.40;;;6.73;;
16506;SDS011;8366;51.020;7.642;2023-04-06T03:16:24;10.03;;;7.00;;
16506;SDS011;8366;51.020;7.642;2023-04-06T03:18:50;10.90;;;6.83;;
16506;SDS011;8366;51.020;7.642;2023-04-06T03:21:16;11.80;;;6.60;;
16506;SDS011;8366;51.020;7.642;2023-04-06T03:23:45;10.10;;;6.87;;
16506;SDS011;8366;51.020;7.642;2023-04-06T03:26:14;15.50;;;7.90;;
16506;SDS011;8366;51.020;7.642;2023-04-06T03:28:41;11.43;;;6.93;;
16506;SDS011;8366;51.020;7.642;2023-04-06T03:31:07;11.57;;;7.33;;
16506;SDS011;8366;51.020;7.642;2023-04-06T03:33:34;10.80;;;7.13;;
16506;SDS011;8366;51.020;7.642;2023-04-06T03:36:00;11.80;;;7.10;;
16506;SDS011;8366;51.020;7.642;2023-04-06T03:38:27;13.53;;;7.30;;
16506;SDS011;8366;51.020;7.642;2023-04-06T03:40:54;13.57;;;7.63;;
16506;SDS011;8366;51.020;7.642;2023-04-06T03:43:21;12.00;;;7.53;;
16506;SDS011;8366;51.020;7.642;2023-04-06T03:45:47;13.43;;;7.47;;
16506;SDS011;8366;51.020;7.642;2023-04-06T03:48:14;12.47;;;7.50;;
16506;SDS011;8366;51.020;7.642;2023-04-06T03:50:42;11.07;;;7.27;;
16506;SDS011;8366;51.020;7.642;2023-04-06T03:53:09;10.33;;;6.63;;
16506;SDS011;8366;51.020;7.642;2023-04-06T03:55:36;11.57;;;7.73;;
16506;SDS011;8366;51.020;7.642;2023-04-06T03:58:08;9.63;;;7.30;;
16506;SDS011;8366;51.020;7.642;2023-04-06T04:00:34;10.57;;;7.70;;
16506;SDS011;8366;51.020;7.642;2023-04-06T04:03:01;13.20;;;8.13;;
16506;SDS011;8366;51.020;7.642;2023-04-06T04:05:28;13.90;;;8.17;;
16506;SDS011;8366;51.020;7.642;2023-04-06T04:07:54;13.33;;;8.47;;
16506;SDS011;8366;51.020;7.642;2023-04-06T04:10:21;12.13;;;7.80;;
16506;SDS011;8366;51.020;7.642;2023-04-06T04:12:47;12.07;;;7.53;;
16506;SDS011;8366;51.020;7.642;2023-04-06T04:18:02;11.33;;;7.63;;
16506;SDS011;8366;51.020;7.642;2023-04-06T04:20:56;13.47;;;8.70;;
16506;SDS011;8366;51.020;7.642;2023-04-06T04:23:22;10.60;;;7.63;;
16506;SDS011;8366;51.020;7.642;2023-04-06T04:25:49;11.57;;;7.63;;
16506;SDS011;8366;51.020;7.642;2023-04-06T04:28:16;12.20;;;7.90;;
16506;SDS011;8366;51.020;7.642;2023-04-06T04:30:42;11.33;;;7.97;;
16506;SDS011;8366;51.020;7.642;2023-04-06T04:33:09;13.17;;;8.00;;
16506;SDS011;8366;51.020;7.642;2023-04-06T04:35:35;12.13;;;7.73;;
16506;SDS011;8366;51.020;7.642;2023-04-06T04:38:03;13.03;;;8.10;;
16506;SDS011;8366;51.020;7.642;2023-04-06T04:40:30;15.07;;;8.43;;
16506;SDS011;8366;51.020;7.642;2023-04-06T04:42:57;15.77;;;7.93;;
16506;SDS011;8366;51.020;7.642;2023-04-06T04:45:23;15.20;;;10.50;;
16506;SDS011;8366;51.020;7.642;2023-04-06T04:47:50;21.27;;;13.33;;
16506;SDS011;8366;51.020;7.642;2023-04-06T04:50:16;18.03;;;10.17;;
16506;SDS011;8366;51.020;7.642;2023-04-06T04:52:43;15.77;;;8.47;;
16506;SDS011;8366;51.020;7.642;2023-04-06T04:55:10;13.33;;;8.63;;
16506;SDS011;8366;51.020;7.642;2023-04-06T04:57:37;14.67;;;8.77;;
16506;SDS011;8366;51.020;7.642;2023-04-06T05:00:04;14.83;;;8.33;;
16506;SDS011;8366;51.020;7.642;2023-04-06T05:02:31;13.80;;;9.07;;
16506;SDS011;8366;51.020;7.642;2023-04-06T05:04:57;11.20;;;8.00;;
16506;SDS011;8366;51.020;7.642;2023-04-06T05:07:24;11.07;;;7.83;;
16506;SDS011;8366;51.020;7.642;2023-04-06T05:09:50;15.80;;;9.00;;
16506;SDS011;8366;51.020;7.642;2023-04-06T05:12:18;14.17;;;9.73;;
16506;SDS011;8366;51.020;7.642;2023-04-06T05:14:45;20.13;;;10.07;;
16506;SDS011;8366;51.020;7.642;2023-04-06T05:17:11;14.57;;;9.17;;
16506;SDS011;8366;51.020;7.642;2023-04-06T05:19:38;14.17;;;9.53;;
16506;SDS011;8366;51.020;7.642;2023-04-06T05:22:05;15.93;;;9.80;;
16506;SDS011;8366;51.020;7.642;2023-04-06T05:24:31;15.00;;;9.27;;
16506;SDS011;8366;51.020;7.642;2023-04-06T05:26:58;14.83;;;9.23;;
16506;SDS011;8366;51.020;7.642;2023-04-06T05:29:26;19.70;;;12.13;;
16506;SDS011;8366;51.020;7.642;2023-04-06T05:31:53;21.97;;;11.70;;
16506;SDS011;8366;51.020;7.642;2023-04-06T05:34:20;17.80;;;10.63;;
16506;SDS011;8366;51.020;7.642;2023-04-06T05:36:46;19.37;;;11.30;;
16506;SDS011;8366;51.020;7.642;2023-04-06T05:39:13;22.87;;;11.70;;
16506;SDS011;8366;51.020;7.642;2023-04-06T05:41:39;19.53;;;11.97;;
16506;SDS011;8366;51.020;7.642;2023-04-06T05:44:06;21.33;;;11.37;;
16506;SDS011;8366;51.020;7.642;2023-04-06T05:46:34;22.25;;;14.35;;
16506;SDS011;8366;51.020;7.642;2023-04-06T05:49:00;18.43;;;11.43;;
16506;SDS011;8366;51.020;7.642;2023-04-06T05:51:27;18.60;;;11.60;;
16506;SDS011;8366;51.020;7.642;2023-04-06T05:53:53;17.70;;;11.10;;
16506;SDS011;8366;51.020;7.642;2023-04-06T05:56:20;17.53;;;10.20;;
16506;SDS011;8366;51.020;7.642;2023-04-06T05:58:46;17.30;;;10.00;;
16506;SDS011;8366;51.020;7.642;2023-04-06T06:01:13;18.80;;;9.77;;
16506;SDS011;8366;51.020;7.642;2023-04-06T06:03:41;15.47;;;9.40;;
16506;SDS011;8366;51.020;7.642;2023-04-06T06:06:08;18.00;;;8.70;;
16506;SDS011;8366;51.020;7.642;2023-04-06T06:08:34;16.60;;;9.07;;
16506;SDS011;8366;51.020;7.642;2023-04-06T06:11:01;16.33;;;8.97;;
16506;SDS011;8366;51.020;7.642;2023-04-06T06:13:28;14.07;;;9.33;;
16506;SDS011;8366;51.020;7.642;2023-04-06T06:15:54;16.70;;;8.97;;
16506;SDS011;8366;51.020;7.642;2023-04-06T06:18:20;12.83;;;8.87;;
16506;SDS011;8366;51.020;7.642;2023-04-06T06:20:51;16.67;;;9.17;;
16506;SDS011;8366;51.020;7.642;2023-04-06T06:23:17;14.67;;;9.07;;
16506;SDS011;8366;51.020;7.642;2023-04-06T06:25:44;14.03;;;8.17;;
16506;SDS011;8366;51.020;7.642;2023-04-06T06:28:10;14.73;;;9.30;;
16506;SDS011;8366;51.020;7.642;2023-04-06T06:30:37;13.50;;;9.03;;
16506;SDS011;8366;51.020;7.642;2023-04-06T06:33:03;13.97;;;9.40;;
16506;SDS011;8366;51.020;7.642;2023-04-06T06:35:30;14.13;;;9.77;;
16506;SDS011;8366;51.020;7.642;2023-04-06T06:37:58;14.00;;;9.60;;
16506;SDS011;8366;51.020;7.642;2023-04-06T06:40:24;15.97;;;9.93;;
16506;SDS011;8366;51.020;7.642;2023-04-06T06:42:51;14.13;;;9.60;;
16506;SDS011;8366;51.020;7.642;2023-04-06T06:45:18;17.23;;;9.37;;
16506;SDS011;8366;51.020;7.642;2023-04-06T06:47:45;16.03;;;9.33;;
16506;SDS011;8366;51.020;7.642;2023-04-06T06:50:11;16.57;;;10.20;;
16506;SDS011;8366;51.020;7.642;2023-04-06T06:52:39;14.57;;;9.87;;
16506;SDS011;8366;51.020;7.642;2023-04-06T06:55:08;20.53;;;10.30;;
16506;SDS011;8366;51.020;7.642;2023-04-06T06:57:35;14.17;;;9.23;;
16506;SDS011;8366;51.020;7.642;2023-04-06T07:00:03;15.30;;;9.30;;
16506;SDS011;8366;51.020;7.642;2023-04-06T07:02:30;14.87;;;9.87;;
16506;SDS011;8366;51.020;7.642;2023-04-06T07:04:57;17.33;;;9.53;;
16506;SDS011;8366;51.020;7.642;2023-04-06T07:07:23;14.73;;;9.67;;
16506;SDS011;8366;51.020;7.642;2023-04-06T07:09:50;9.80;;;7.40;;
16506;SDS011;8366;51.020;7.642;2023-04-06T07:12:18;14.80;;;9.33;;
16506;SDS011;8366;51.020;7.642;2023-04-06T07:14:44;16.83;;;8.77;;
16506;SDS011;8366;51.020;7.642;2023-04-06T07:17:11;16.00;;;11.37;;
16506;SDS011;8366;51.020;7.642;2023-04-06T07:19:37;16.07;;;9.27;;
16506;SDS011;8366;51.020;7.642;2023-04-06T07:22:04;16.87;;;7.83;;
16506;SDS011;8366;51.020;7.642;2023-04-06T07:24:30;11.87;;;6.90;;
16506;SDS011;8366;51.020;7.642;2023-04-06T07:26:57;8.43;;;6.13;;
16506;SDS011;8366;51.020;7.642;2023-04-06T07:29:26;12.53;;;7.07;;
16506;SDS011;8366;51.020;7.642;2023-04-06T07:31:53;11.23;;;7.00;;
16506;SDS011;8366;51.020;7.642;2023-04-06T07:34:20;12.20;;;7.53;;
16506;SDS011;8366;51.020;7.642;2023-04-06T07:36:46;12.07;;;7.07;;
16506;SDS011;8366;51.020;7.642;2023-04-06T07:39:13;9.47;;;6.40;;
16506;SDS011;8366;51.020;7.642;2023-04-06T07:41:39;12.83;;;7.37;;
16506;SDS011;8366;51.020;7.642;2023-04-06T07:44:06;11.03;;;6.70;;
16506;SDS011;8366;51.020;7.642;2023-04-06T07:46:34;10.50;;;6.73;;
16506;SDS011;8366;51.020;7.642;2023-04-06T07:49:01;11.10;;;6.80;;
16506;SDS011;8366;51.020;7.642;2023-04-06T07:51:28;12.20;;;6.60;;
16506;SDS011;8366;51.020;7.642;2023-04-06T07:53:54;9.57;;;6.33;;
16506;SDS011;8366;51.020;7.642;2023-04-06T07:56:21;11.23;;;6.50;;
16506;SDS011;8366;51.020;7.642;2023-04-06T07:58:47;10.70;;;6.80;;
16506;SDS011;8366;51.020;7.642;2023-04-06T08:01:14;9.17;;;6.37;;
16506;SDS011;8366;51.020;7.642;2023-04-06T08:03:42;10.07;;;6.27;;
16506;SDS011;8366;51.020;7.642;2023-04-06T08:06:09;11.20;;;6.87;;
16506;SDS011;8366;51.020;7.642;2023-04-06T08:08:35;11.43;;;6.50;;
16506;SDS011;8366;51.020;7.642;2023-04-06T08:11:02;10.87;;;6.90;;
16506;SDS011;8366;51.020;7.642;2023-04-06T08:13:28;10.93;;;6.93;;
16506;SDS011;8366;51.020;7.642;2023-04-06T08:15:55;10.10;;;6.87;;
16506;SDS011;8366;51.020;7.642;2023-04-06T08:18:22;11.57;;;7.57;;
16506;SDS011;8366;51.020;7.642;2023-04-06T08:20:50;10.73;;;7.00;;
16506;SDS011;8366;51.020;7.642;2023-04-06T08:23:16;10.57;;;7.10;;
16506;SDS011;8366;51.020;7.642;2023-04-06T08:25:43;12.10;;;7.20;;
16506;SDS011;8366;51.020;7.642;2023-04-06T08:28:09;10.30;;;6.93;;
16506;SDS011;8366;51.020;7.642;2023-04-06T08:30:36;10.47;;;6.83;;
16506;SDS011;8366;51.020;7.642;2023-04-06T08:33:03;12.90;;;8.10;;
16506;SDS011;8366;51.020;7.642;2023-04-06T08:35:29;9.83;;;6.87;;
16506;SDS011;8366;51.020;7.642;2023-04-06T08:37:58;10.90;;;7.23;;
16506;SDS011;8366;51.020;7.642;2023-04-06T08:40:24;12.47;;;7.30;;
16506;SDS011;8366;51.020;7.642;2023-04-06T08:42:52;11.30;;;7.60;;
16506;SDS011;8366;51.020;7.642;2023-04-06T08:45:20;12.33;;;7.53;;
16506;SDS011;8366;51.020;7.642;2023-04-06T08:47:48;12.73;;;7.77;;
16506;SDS011;8366;51.020;7.642;2023-04-06T08:50:17;14.30;;;7.50;;
16506;SDS011;8366;51.020;7.642;2023-04-06T08:52:44;16.93;;;8.33;;
16506;SDS011;8366;51.020;7.642;2023-04-06T08:55:16;14.40;;;8.60;;
16506;SDS011;8366;51.020;7.642;2023-04-06T08:57:43;13.10;;;8.37;;
16506;SDS011;8366;51.020;7.642;2023-04-06T09:00:11;15.23;;;7.97;;
16506;SDS011;8366;51.020;7.642;2023-04-06T09:02:39;14.17;;;8.73;;
16506;SDS011;8366;51.020;7.642;2023-04-06T09:05:07;13.13;;;7.60;;
16506;SDS011;8366;51.020;7.642;2023-04-06T09:07:36;14.43;;;8.47;;
16506;SDS011;8366;51.020;7.642;2023-04-06T09:10:03;15.30;;;8.87;;
16506;SDS011;8366;51.020;7.642;2023-04-06T09:12:32;14.20;;;8.53;;
16506;SDS011;8366;51.020;7.642;2023-04-06T09:14:58;15.03;;;8.87;;
16506;SDS011;8366;51.020;7.642;2023-04-06T09:17:26;14.13;;;9.03;;
16506;SDS011;8366;51.020;7.642;2023-04-06T09:19:54;13.47;;;8.93;;
16506;SDS011;8366;51.020;7.642;2023-04-06T09:22:20;15.53;;;9.97;;
16506;SDS011;8366;51.020;7.642;2023-04-06T09:24:48;15.70;;;9.57;;
16506;SDS011;8366;51.020;7.642;2023-04-06T09:27:16;13.53;;;9.00;;
16506;SDS011;8366;51.020;7.642;2023-04-06T09:29:45;14.03;;;9.40;;
16506;SDS011;8366;51.020;7.642;2023-04-06T09:32:11;15.03;;;9.47;;
16506;SDS011;8366;51.020;7.642;2023-04-06T09:34:41;14.57;;;10.43;;
16506;SDS011;8366;51.020;7.642;2023-04-06T09:37:14;14.10;;;9.83;;
16506;SDS011;8366;51.020;7.642;2023-04-06T09:39:41;16.60;;;10.07;;
16506;SDS011;8366;51.020;7.642;2023-04-06T09:42:07;14.73;;;9.17;;
16506;SDS011;8366;51.020;7.642;2023-04-06T09:44:34;17.50;;;10.00;;
16506;SDS011;8366;51.020;7.642;2023-04-06T09:47:02;16.63;;;9.93;;
16506;SDS011;8366;51.020;7.642;2023-04-06T09:49:31;17.07;;;9.70;;
16506;SDS011;8366;51.020;7.642;2023-04-06T09:52:02;14.57;;;9.80;;
16506;SDS011;8366;51.020;7.642;2023-04-06T09:54:29;15.03;;;9.63;;
16506;SDS011;8366;51.020;7.642;2023-04-06T09:56:58;15.43;;;10.13;;
16506;SDS011;8366;51.020;7.642;2023-04-06T09:59:31;13.83;;;9.10;;
16506;SDS011;8366;51.020;7.642;2023-04-06T10:02:05;14.63;;;9.33;;
16506;SDS011;8366;51.020;7.642;2023-04-06T10:04:36;17.03;;;9.33;;
16506;SDS011;8366;51.020;7.642;2023-04-06T10:07:05;14.67;;;9.33;;
16506;SDS011;8366;51.020;7.642;2023-04-06T10:09:33;17.27;;;9.70;;
16506;SDS011;8366;51.020;7.642;2023-04-06T10:12:02;16.07;;;9.07;;
16506;SDS011;8366;51.020;7.642;2023-04-06T10:14:44;15.27;;;9.57;;
16506;SDS011;8366;51.020;7.642;2023-04-06T10:17:12;14.97;;;8.90;;
16506;SDS011;8366;51.020;7.642;2023-04-06T10:19:41;15.10;;;8.80;;
16506;SDS011;8366;51.020;7.642;2023-04-06T10:22:12;15.63;;;8.90;;
16506;SDS011;8366;51.020;7.642;2023-04-06T10:24:44;14.23;;;8.97;;
16506;SDS011;8366;51.020;7.642;2023-04-06T10:27:11;15.57;;;8.77;;
16506;SDS011;8366;51.020;7.642;2023-04-06T10:29:42;16.40;;;9.27;;
16506;SDS011;8366;51.020;7.642;2023-04-06T10:32:10;13.00;;;8.53;;
16506;SDS011;8366;51.020;7.642;2023-04-06T10:34:38;14.10;;;8.88;;
16506;SDS011;8366;51.020;7.642;2023-04-06T10:37:12;14.17;;;8.83;;
16506;SDS011;8366;51.020;7.642;2023-04-06T10:39:46;17.45;;;8.68;;
16506;SDS011;8366;51.020;7.642;2023-04-06T10:42:13;15.07;;;8.40;;
16506;SDS011;8366;51.020;7.642;2023-04-06T10:44:42;15.30;;;9.07;;
16506;SDS011;8366;51.020;7.642;2023-04-06T10:47:15;16.27;;;8.83;;
16506;SDS011;8366;51.020;7.642;2023-04-06T10:49:45;14.27;;;9.10;;
16506;SDS011;8366;51.020;7.642;2023-04-06T10:52:12;13.57;;;8.30;;
16506;SDS011;8366;51.020;7.642;2023-04-06T10:54:41;13.98;;;8.80;;
16506;SDS011;8366;51.020;7.642;2023-04-06T10:57:09;14.70;;;9.30;;
16506;SDS011;8366;51.020;7.642;2023-04-06T10:59:36;13.48;;;8.52;;
16506;SDS011;8366;51.020;7.642;2023-04-06T11:02:02;14.23;;;8.88;;
16506;SDS011;8366;51.020;7.642;2023-04-06T11:04:29;13.30;;;8.43;;
16506;SDS011;8366;51.020;7.642;2023-04-06T11:06:57;14.10;;;8.68;;
16506;SDS011;8366;51.020;7.642;2023-04-06T11:09:24;15.73;;;8.93;;
16506;SDS011;8366;51.020;7.642;2023-04-06T11:11:52;13.68;;;8.50;;
16506;SDS011;8366;51.020;7.642;2023-04-06T11:14:19;15.93;;;9.60;;
16506;SDS011;8366;51.020;7.642;2023-04-06T11:16:47;14.65;;;8.75;;
16506;SDS011;8366;51.020;7.642;2023-04-06T11:19:14;28.42;;;16.00;;
16506;SDS011;8366;51.020;7.642;2023-04-06T11:21:42;18.00;;;11.93;;
16506;SDS011;8366;51.020;7.642;2023-04-06T11:24:15;14.63;;;9.88;;
16506;SDS011;8366;51.020;7.642;2023-04-06T11:26:58;15.48;;;8.60;;
16506;SDS011;8366;51.020;7.642;2023-04-06T11:29:26;15.60;;;9.25;;
16506;SDS011;8366;51.020;7.642;2023-04-06T11:31:54;13.35;;;8.40;;
16506;SDS011;8366;51.020;7.642;2023-04-06T11:34:24;15.52;;;8.60;;
16506;SDS011;8366;51.020;7.642;2023-04-06T11:36:53;15.52;;;9.55;;
16506;SDS011;8366;51.020;7.642;2023-04-06T11:39:23;14.00;;;8.70;;
16506;SDS011;8366;51.020;7.642;2023-04-06T11:41:51;14.48;;;8.57;;
16506;SDS011;8366;51.020;7.642;2023-04-06T11:44:28;12.88;;;9.05;;
16506;SDS011;8366;51.020;7.642;2023-04-06T11:46:56;15.13;;;8.73;;
16506;SDS011;8366;51.020;7.642;2023-04-06T11:49:26;13.77;;;8.30;;
16506;SDS011;8366;51.020;7.642;2023-04-06T11:51:55;14.95;;;8.48;;
16506;SDS011;8366;51.020;7.642;2023-04-06T11:54:32;14.18;;;9.48;;
16506;SDS011;8366;51.020;7.642;2023-04-06T11:56:59;13.10;;;8.98;;
16506;SDS011;8366;51.020;7.642;2023-04-06T11:59:27;15.05;;;9.45;;
16506;SDS011;8366;51.020;7.642;2023-04-06T12:01:56;13.30;;;9.05;;
16506;SDS011;8366;51.020;7.642;2023-04-06T12:04:23;15.45;;;9.60;;
16506;SDS011;8366;51.020;7.642;2023-04-06T12:06:50;14.57;;;8.63;;
16506;SDS011;8366;51.020;7.642;2023-04-06T12:09:17;15.95;;;9.70;;
16506;SDS011;8366;51.020;7.642;2023-04-06T12:11:46;15.10;;;9.57;;
16506;SDS011;8366;51.020;7.642;2023-04-06T12:14:12;13.40;;;9.27;;
16506;SDS011;8366;51.020;7.642;2023-04-06T12:16:39;13.90;;;9.40;;
16506;SDS011;8366;51.020;7.642;2023-04-06T12:19:06;15.70;;;9.77;;
16506;SDS011;8366;51.020;7.642;2023-04-06T12:21:33;16.13;;;9.48;;
16506;SDS011;8366;51.020;7.642;2023-04-06T12:24:01;16.13;;;9.68;;
16506;SDS011;8366;51.020;7.642;2023-04-06T12:26:28;14.27;;;9.75;;
16506;SDS011;8366;51.020;7.642;2023-04-06T12:28:58;15.82;;;9.65;;
16506;SDS011;8366;51.020;7.642;2023-04-06T12:31:29;15.88;;;9.68;;
16506;SDS011;8366;51.020;7.642;2023-04-06T12:33:56;16.60;;;9.80;;
16506;SDS011;8366;51.020;7.642;2023-04-06T12:36:23;13.13;;;9.38;;
16506;SDS011;8366;51.020;7.642;2023-04-06T12:38:50;15.85;;;9.90;;
16506;SDS011;8366;51.020;7.642;2023-04-06T12:41:17;14.02;;;8.82;;
16506;SDS011;8366;51.020;7.642;2023-04-06T12:43:44;15.75;;;9.73;;
16506;SDS011;8366;51.020;7.642;2023-04-06T12:46:12;14.40;;;9.35;;
16506;SDS011;8366;51.020;7.642;2023-04-06T12:48:39;13.65;;;9.18;;
16506;SDS011;8366;51.020;7.642;2023-04-06T12:51:05;15.77;;;9.88;;
16506;SDS011;8366;51.020;7.642;2023-04-06T12:53:33;14.00;;;9.48;;
16506;SDS011;8366;51.020;7.642;2023-04-06T12:56:00;15.68;;;9.43;;
16506;SDS011;8366;51.020;7.642;2023-04-06T12:58:27;13.52;;;8.75;;
16506;SDS011;8366;51.020;7.642;2023-04-06T13:00:54;14.43;;;9.35;;
16506;SDS011;8366;51.020;7.642;2023-04-06T13:03:22;15.77;;;9.18;;
16506;SDS011;8366;51.020;7.642;2023-04-06T13:05:49;14.35;;;9.23;;
16506;SDS011;8366;51.020;7.642;2023-04-06T13:08:17;17.67;;;9.82;;
16506;SDS011;8366;51.020;7.642;2023-04-06T13:10:46;16.52;;;9.60;;
16506;SDS011;8366;51.020;7.642;2023-04-06T13:13:13;16.25;;;9.35;;
16506;SDS011;8366;51.020;7.642;2023-04-06T13:15:41;15.30;;;8.88;;
16506;SDS011;8366;51.020;7.642;2023-04-06T13:18:14;15.10;;;8.48;;
16506;SDS011;8366;51.020;7.642;2023-04-06T13:21:38;13.43;;;8.65;;
16506;SDS011;8366;51.020;7.642;2023-04-06T13:24:05;14.95;;;9.02;;
16506;SDS011;8366;51.020;7.642;2023-04-06T13:26:32;14.75;;;9.10;;
16506;SDS011;8366;51.020;7.642;2023-04-06T13:28:59;15.90;;;9.57;;
16506;SDS011;8366;51.020;7.642;2023-04-06T13:31:25;14.13;;;8.38;;
16506;SDS011;8366;51.020;7.642;2023-04-06T13:33:52;12.75;;;8.07;;
16506;SDS011;8366;51.020;7.642;2023-04-06T13:36:18;13.82;;;8.10;;
16506;SDS011;8366;51.020;7.642;2023-04-06T13:38:46;12.60;;;7.72;;
16506;SDS011;8366;51.020;7.642;2023-04-06T13:41:17;14.07;;;8.43;;
16506;SDS011;8366;51.020;7.642;2023-04-06T13:43:45;13.75;;;8.52;;
16506;SDS011;8366;51.020;7.642;2023-04-06T13:46:12;11.32;;;7.00;;
